Time;durP1;ratioP1;P1;durP2;ratioP2;P2;SDS_P1;SDS_P2;PMS_P1;PMS_P2;Temp;Humidity;BMP_temperature;BMP_pressure;BME280_temperature;BME280_humidity;BME280_pressure;Samples;Min_cycle;Max_cycle;Signal;HPM_P1;HPM_P2
2022/07/28 00:02:19;;;;;;;4.38;1.80;;;10.30;99.90;;;;;;5059914;28;20143;-67
2022/07/28 00:04:45;;;;;;;3.28;1.30;;;10.20;99.90;;;;;;5063481;28;20052;-67
2022/07/28 00:07:11;;;;;;;3.78;1.55;;;10.10;99.90;;;;;;5061115;28;20045;-67
2022/07/28 00:09:37;;;;;;;6.22;2.40;;;10.10;99.90;;;;;;5064744;28;20040;-68
2022/07/28 00:12:03;;;;;;;5.00;2.60;;;10.10;99.90;;;;;;5064793;28;20429;-68
2022/07/28 00:14:29;;;;;;;3.58;2.80;;;10.10;99.90;;;;;;5064189;28;20040;-68
2022/07/28 00:16:54;;;;;;;3.97;2.50;;;10.20;99.90;;;;;;5057912;28;20429;-68
2022/07/28 00:19:20;;;;;;;4.38;2.60;;;10.20;99.90;;;;;;5061142;28;20464;-68
2022/07/28 00:21:46;;;;;;;3.65;2.30;;;10.20;99.90;;;;;;5065425;28;20025;-68
2022/07/28 00:24:11;;;;;;;9.32;1.40;;;10.20;99.90;;;;;;5068099;28;20078;-68
2022/07/28 00:26:37;;;;;;;15.40;1.40;;;10.10;99.90;;;;;;5063723;28;20055;-68
2022/07/28 00:29:04;;;;;;;4.97;1.45;;;9.90;99.90;;;;;;5070227;28;20115;-68
2022/07/28 00:31:29;;;;;;;4.35;1.70;;;9.80;99.90;;;;;;5060336;28;20511;-68
2022/07/28 00:33:55;;;;;;;2.95;1.50;;;9.70;99.90;;;;;;5066515;28;20550;-68
2022/07/28 00:36:21;;;;;;;1.13;1.00;;;9.50;99.90;;;;;;5062522;28;20079;-68
2022/07/28 00:38:46;;;;;;;1.58;1.20;;;9.40;99.90;;;;;;5061215;28;20042;-68
2022/07/28 00:41:12;;;;;;;2.40;1.60;;;9.40;99.90;;;;;;5076968;28;20566;-68
2022/07/28 00:43:45;;;;;;;4.13;1.90;;;9.40;99.90;;;;;;5068802;28;20040;-68
2022/07/28 00:46:12;;;;;;;3.40;1.75;;;9.40;99.90;;;;;;5064267;28;20072;-68
2022/07/28 00:48:41;;;;;;;1.80;1.33;;;9.50;99.90;;;;;;5063870;28;20479;-67
2022/07/28 00:51:08;;;;;;;2.80;1.20;;;9.30;99.90;;;;;;5066437;28;20037;-68
2022/07/28 00:53:35;;;;;;;3.75;1.42;;;9.40;99.90;;;;;;5067947;28;20041;-68
2022/07/28 00:56:01;;;;;;;2.60;1.83;;;9.30;99.90;;;;;;5066341;28;20373;-68
2022/07/28 00:58:27;;;;;;;3.47;2.30;;;9.50;99.90;;;;;;5070651;28;20040;-68
2022/07/28 01:00:53;;;;;;;4.20;2.60;;;9.40;99.90;;;;;;5063352;28;20044;-68
2022/07/28 01:03:19;;;;;;;3.05;1.95;;;9.50;99.90;;;;;;5066877;28;20123;-68
2022/07/28 01:06:00;;;;;;;5.00;2.08;;;9.50;99.90;;;;;;5062137;28;20123;-68
2022/07/28 01:08:45;;;;;;;5.90;2.83;;;9.50;99.90;;;;;;5070144;28;20547;-69
2022/07/28 01:11:22;;;;;;;4.22;2.30;;;9.60;99.90;;;;;;5045438;28;20048;-68
2022/07/28 01:13:57;;;;;;;3.08;2.53;;;9.50;99.90;;;;;;5069855;28;20068;-68
2022/07/28 01:16:22;;;;;;;3.72;2.20;;;9.50;99.90;;;;;;5068963;28;20045;-68
2022/07/28 01:19:01;;;;;;;3.97;2.55;;;9.50;99.90;;;;;;5060688;28;20052;-69
2022/07/28 01:21:33;;;;;;;2.58;1.92;;;9.60;99.90;;;;;;5064488;28;20456;-68
2022/07/28 01:24:09;;;;;;;3.08;2.33;;;9.60;99.90;;;;;;5072083;28;20128;-68
2022/07/28 01:27:01;;;;;;;3.75;2.42;;;9.50;99.90;;;;;;5066868;28;20040;-68
2022/07/28 01:30:21;;;;;;;3.65;2.60;;;9.60;99.90;;;;;;5064238;28;20589;-68
2022/07/28 01:32:53;;;;;;;5.10;3.63;;;9.60;99.90;;;;;;5073189;28;20033;-68
2022/07/28 01:35:23;;;;;;;5.20;3.00;;;9.60;99.90;;;;;;5064873;28;20306;-68
2022/07/28 01:37:53;;;;;;;4.78;3.28;;;9.60;99.90;;;;;;5064711;28;20391;-68
2022/07/28 01:40:24;;;;;;;8.93;3.63;;;9.60;99.90;;;;;;5059422;28;20397;-68
2022/07/28 01:42:54;;;;;;;5.72;2.88;;;9.70;99.90;;;;;;5068859;28;20102;-68
2022/07/28 01:45:21;;;;;;;4.90;2.85;;;9.70;99.90;;;;;;5069498;28;20043;-68
2022/07/28 01:47:48;;;;;;;5.38;2.60;;;9.60;99.90;;;;;;5067159;28;20055;-67
2022/07/28 01:50:16;;;;;;;5.25;2.65;;;9.60;99.90;;;;;;5066092;28;20407;-67
2022/07/28 01:52:44;;;;;;;6.60;3.20;;;9.50;99.90;;;;;;5065111;28;20044;-67
2022/07/28 01:55:12;;;;;;;6.30;3.08;;;9.50;99.90;;;;;;5069407;28;20186;-66
2022/07/28 01:57:39;;;;;;;5.40;3.33;;;9.50;99.90;;;;;;5066759;28;20033;-66
2022/07/28 02:00:09;;;;;;;6.43;3.40;;;9.30;99.90;;;;;;5065169;28;20051;-66
2022/07/28 02:02:37;;;;;;;8.27;3.60;;;9.30;99.90;;;;;;5060980;28;20059;-66
2022/07/28 02:05:04;;;;;;;6.20;3.58;;;9.30;99.90;;;;;;5062736;28;20044;-66
2022/07/28 02:07:32;;;;;;;6.30;3.40;;;9.20;99.90;;;;;;5065975;28;20045;-68
2022/07/28 02:09:58;;;;;;;5.47;3.45;;;9.20;99.90;;;;;;5068031;28;20115;-68
2022/07/28 02:12:26;;;;;;;8.57;3.33;;;9.20;99.90;;;;;;5066586;28;20115;-68
2022/07/28 02:14:53;;;;;;;7.00;3.40;;;9.20;99.90;;;;;;5065156;28;20036;-67
2022/07/28 02:17:24;;;;;;;7.13;3.45;;;9.30;99.90;;;;;;5067668;28;20036;-66
2022/07/28 02:19:51;;;;;;;7.72;3.80;;;9.20;99.90;;;;;;5068748;28;20036;-67
2022/07/28 02:22:17;;;;;;;6.90;3.83;;;9.30;99.90;;;;;;5065143;28;20041;-67
2022/07/28 02:24:44;;;;;;;9.32;3.53;;;9.20;99.90;;;;;;5058219;28;20447;-67
2022/07/28 02:27:24;;;;;;;6.25;3.80;;;9.20;99.90;;;;;;5059232;28;20048;-68
2022/07/28 02:29:58;;;;;;;9.07;4.30;;;9.20;99.90;;;;;;5064012;28;20051;-68
2022/07/28 02:32:30;;;;;;;8.82;4.13;;;9.20;99.90;;;;;;5072500;28;20662;-68
2022/07/28 02:35:26;;;;;;;9.88;3.92;;;9.20;99.90;;;;;;5084581;28;20040;-67
2022/07/28 02:37:57;;;;;;;6.53;3.60;;;9.20;99.90;;;;;;5047703;28;20080;-67
2022/07/28 02:40:26;;;;;;;6.75;3.40;;;9.10;99.90;;;;;;5072362;28;20036;-68
2022/07/28 02:42:53;;;;;;;8.38;4.05;;;9.10;99.90;;;;;;5063163;28;20071;-68
2022/07/28 02:45:24;;;;;;;5.18;3.38;;;9.10;99.90;;;;;;5068487;28;20036;-67
2022/07/28 02:47:54;;;;;;;7.10;3.75;;;9.10;99.90;;;;;;5066470;28;20037;-68
2022/07/28 02:50:24;;;;;;;7.13;3.60;;;9.10;99.90;;;;;;5061079;28;20063;-67
2022/07/28 02:52:54;;;;;;;5.28;3.08;;;9.00;99.90;;;;;;5065883;28;20094;-67
2022/07/28 02:55:20;;;;;;;7.38;3.50;;;9.00;99.90;;;;;;5060994;28;20498;-67
2022/07/28 02:57:47;;;;;;;6.40;3.83;;;8.90;99.90;;;;;;5045006;28;20071;-67
2022/07/28 03:00:14;;;;;;;8.32;3.60;;;9.00;99.90;;;;;;5058534;28;20036;-67
2022/07/28 03:02:42;;;;;;;9.00;3.90;;;9.10;99.90;;;;;;5064160;28;20448;-67
2022/07/28 03:05:08;;;;;;;5.28;3.42;;;9.00;99.90;;;;;;5054287;28;20032;-67
2022/07/28 03:07:35;;;;;;;6.80;3.78;;;9.00;99.90;;;;;;5063851;28;20045;-67
2022/07/28 03:10:02;;;;;;;7.10;4.20;;;9.10;99.90;;;;;;5062711;28;20079;-67
2022/07/28 03:12:28;;;;;;;7.20;3.72;;;9.10;99.90;;;;;;5060308;28;20052;-67
2022/07/28 03:14:54;;;;;;;5.70;3.50;;;9.20;99.90;;;;;;5061993;28;20490;-67
2022/07/28 03:17:20;;;;;;;8.80;4.10;;;9.20;99.90;;;;;;5067585;28;20395;-66
2022/07/28 03:19:45;;;;;;;7.60;3.65;;;9.20;99.90;;;;;;5064759;28;20047;-66
2022/07/28 03:22:11;;;;;;;3.75;2.25;;;9.20;99.90;;;;;;5069096;28;20066;-67
2022/07/28 03:24:40;;;;;;;5.40;2.60;;;9.10;99.90;;;;;;5067794;28;20036;-67
2022/07/28 03:27:24;;;;;;;5.40;2.88;;;9.00;99.90;;;;;;5066887;28;20037;-67
2022/07/28 03:30:03;;;;;;;6.53;3.28;;;9.00;99.90;;;;;;5059626;28;20041;-66
2022/07/28 03:32:31;;;;;;;4.15;2.53;;;9.00;99.90;;;;;;5061680;28;20468;-66
2022/07/28 03:34:57;;;;;;;8.32;3.45;;;9.00;99.90;;;;;;5062556;28;20484;-66
2022/07/28 03:37:27;;;;;;;3.35;1.65;;;9.00;99.90;;;;;;5062643;28;20123;-66
2022/07/28 03:39:56;;;;;;;3.10;1.88;;;8.80;99.90;;;;;;5067015;28;20048;-66
2022/07/28 03:42:23;;;;;;;3.53;2.13;;;8.60;99.90;;;;;;5065742;28;20044;-66
2022/07/28 03:44:50;;;;;;;5.75;2.80;;;8.60;99.90;;;;;;5064142;28;20031;-66
2022/07/28 03:47:21;;;;;;;6.75;2.50;;;8.60;99.90;;;;;;5067806;28;20088;-66
2022/07/28 03:49:46;;;;;;;6.88;3.00;;;8.70;99.90;;;;;;5052861;28;20037;-66
2022/07/28 03:52:12;;;;;;;4.40;2.90;;;8.60;99.90;;;;;;5060776;28;20051;-66
2022/07/28 03:54:37;;;;;;;2.78;1.92;;;8.60;99.90;;;;;;5064676;28;20467;-66
2022/07/28 03:57:03;;;;;;;122.97;5.72;;;8.60;99.90;;;;;;5063892;28;20044;-66
2022/07/28 03:59:29;;;;;;;2.00;1.42;;;8.40;99.90;;;;;;5067791;28;20033;-66
2022/07/28 04:01:55;;;;;;;2.70;1.85;;;8.40;99.90;;;;;;5061187;28;20041;-66
2022/07/28 04:04:21;;;;;;;4.72;2.47;;;8.40;99.90;;;;;;5071001;28;20496;-66
2022/07/28 04:06:47;;;;;;;4.68;2.40;;;8.30;99.90;;;;;;5070699;28;20067;-66
2022/07/28 04:09:14;;;;;;;7.40;2.80;;;8.30;99.90;;;;;;5066167;28;20447;-66
2022/07/28 04:11:40;;;;;;;6.40;3.03;;;8.30;99.90;;;;;;5067655;28;20052;-66
2022/07/28 04:14:06;;;;;;;7.53;3.15;;;8.40;99.90;;;;;;5068979;28;20032;-66
2022/07/28 04:16:31;;;;;;;5.68;3.20;;;8.40;99.90;;;;;;5063298;28;20063;-66
2022/07/28 04:18:57;;;;;;;6.50;3.30;;;8.50;99.90;;;;;;5069376;28;20508;-66
2022/07/28 04:21:23;;;;;;;5.45;2.30;;;8.40;99.90;;;;;;5068600;28;20483;-66
2022/07/28 04:23:49;;;;;;;91.68;3.78;;;8.40;99.90;;;;;;5065803;28;20037;-66
2022/07/28 04:26:16;;;;;;;7.60;1.77;;;8.30;99.90;;;;;;5061887;28;20060;-65
2022/07/28 04:28:42;;;;;;;5.45;2.55;;;8.30;99.90;;;;;;5075229;28;20052;-65
2022/07/28 04:31:07;;;;;;;7.28;2.58;;;8.30;99.90;;;;;;5060906;28;20037;-65
2022/07/28 04:33:33;;;;;;;5.53;3.30;;;8.30;99.90;;;;;;5068860;28;20055;-65
2022/07/28 04:36:00;;;;;;;5.97;2.40;;;8.40;99.90;;;;;;5063535;28;20115;-65
2022/07/28 04:38:26;;;;;;;7.05;3.22;;;8.30;99.90;;;;;;5050908;28;20089;-65
2022/07/28 04:40:52;;;;;;;4.45;1.83;;;8.40;99.90;;;;;;5066207;28;20043;-64
2022/07/28 04:43:18;;;;;;;4.10;1.60;;;8.40;99.90;;;;;;5073922;28;20399;-64
2022/07/28 04:45:45;;;;;;;5.40;3.00;;;8.50;99.90;;;;;;5069417;28;20512;-65
2022/07/28 04:48:11;;;;;;;6.25;2.88;;;8.50;99.90;;;;;;5065265;28;20069;-65
2022/07/28 04:50:39;;;;;;;6.50;2.58;;;8.60;99.90;;;;;;5066454;28;20123;-65
2022/07/28 04:53:05;;;;;;;6.70;3.38;;;8.60;99.90;;;;;;5071482;28;20029;-65
2022/07/28 04:55:31;;;;;;;15.73;5.18;;;8.70;99.90;;;;;;5064337;28;20032;-65
2022/07/28 04:57:56;;;;;;;7.72;4.13;;;8.80;99.90;;;;;;5064527;28;20116;-65
2022/07/28 05:00:22;;;;;;;9.68;4.70;;;8.80;99.90;;;;;;5067013;28;20028;-66
2022/07/28 05:02:48;;;;;;;10.48;4.15;;;8.90;99.90;;;;;;5069862;28;20036;-66
2022/07/28 05:05:14;;;;;;;7.13;3.35;;;9.10;99.90;;;;;;5065453;28;20044;-66
2022/07/28 05:07:40;;;;;;;9.90;3.90;;;9.10;99.90;;;;;;5069642;28;20044;-65
2022/07/28 05:10:08;;;;;;;7.47;3.63;;;9.30;99.90;;;;;;5063511;28;20032;-65
2022/07/28 05:12:34;;;;;;;6.25;3.88;;;9.40;99.90;;;;;;5083542;28;20048;-66
2022/07/28 05:14:59;;;;;;;8.45;3.97;;;9.50;99.90;;;;;;5067688;28;20045;-67
2022/07/28 05:17:26;;;;;;;9.50;3.90;;;9.60;99.90;;;;;;5069758;28;20037;-66
2022/07/28 05:19:51;;;;;;;9.70;4.40;;;9.70;99.90;;;;;;5066936;28;20044;-67
2022/07/28 05:22:17;;;;;;;7.55;4.15;;;10.10;99.90;;;;;;5065261;28;20395;-68
2022/07/28 05:24:42;;;;;;;10.35;4.30;;;10.10;99.90;;;;;;5065703;28;20075;-67
2022/07/28 05:27:08;;;;;;;8.32;3.97;;;10.40;99.90;;;;;;5064681;28;20188;-68
2022/07/28 05:29:37;;;;;;;10.15;4.30;;;10.60;99.90;;;;;;5064541;28;20044;-69
2022/07/28 05:32:04;;;;;;;12.48;4.55;;;10.80;99.90;;;;;;5064811;28;20107;-67
2022/07/28 05:34:30;;;;;;;11.07;4.30;;;11.00;99.90;;;;;;5066576;28;20044;-68
2022/07/28 05:36:56;;;;;;;11.38;4.47;;;11.20;99.90;;;;;;5065335;28;20086;-68
2022/07/28 05:39:21;;;;;;;9.13;4.82;;;11.50;99.90;;;;;;5071778;28;20080;-69
2022/07/28 05:41:47;;;;;;;13.77;4.68;;;11.70;99.90;;;;;;5075179;28;20036;-68
2022/07/28 05:44:13;;;;;;;12.43;5.05;;;11.90;99.90;;;;;;5064561;28;20371;-68
2022/07/28 05:46:38;;;;;;;11.35;4.38;;;12.30;99.90;;;;;;5062487;28;20041;-67
2022/07/28 05:49:04;;;;;;;10.23;4.57;;;12.50;99.90;;;;;;5064101;28;20029;-67
2022/07/28 05:51:29;;;;;;;12.02;4.72;;;12.80;99.90;;;;;;5058002;28;20090;-67
2022/07/28 05:53:55;;;;;;;11.57;4.68;;;13.00;99.90;;;;;;5066216;28;20040;-68
2022/07/28 05:56:21;;;;;;;10.60;4.50;;;13.20;99.90;;;;;;5064814;28;20040;-68
2022/07/28 05:58:48;;;;;;;13.15;4.45;;;13.30;99.90;;;;;;5068184;28;20163;-68
2022/07/28 06:01:13;;;;;;;9.93;4.10;;;13.60;99.90;;;;;;5080331;28;20048;-68
2022/07/28 06:03:39;;;;;;;17.08;5.18;;;13.80;99.90;;;;;;5065633;28;20113;-67
2022/07/28 06:06:05;;;;;;;8.73;4.20;;;13.90;99.90;;;;;;5062890;28;20032;-68
2022/07/28 06:08:31;;;;;;;10.35;3.90;;;14.00;99.90;;;;;;5064421;28;20045;-68
2022/07/28 06:11:10;;;;;;;10.63;3.55;;;14.10;99.90;;;;;;5068353;28;20043;-67
2022/07/28 06:13:37;;;;;;;9.63;4.45;;;14.20;99.90;;;;;;5066013;28;20052;-67
2022/07/28 06:16:06;;;;;;;12.82;4.22;;;14.30;99.90;;;;;;5067264;28;20218;-68
2022/07/28 06:18:32;;;;;;;9.95;4.35;;;14.40;99.90;;;;;;5067515;28;20062;-68
2022/07/28 06:20:58;;;;;;;9.20;3.90;;;14.40;99.90;;;;;;5065278;28;20043;-67
2022/07/28 06:23:24;;;;;;;9.88;4.07;;;14.50;99.90;;;;;;5069958;28;20032;-67
2022/07/28 06:25:50;;;;;;;9.10;4.20;;;14.50;99.90;;;;;;5062177;28;20036;-67
2022/07/28 06:28:17;;;;;;;11.93;4.07;;;14.60;99.90;;;;;;5066083;28;20036;-68
2022/07/28 06:30:44;;;;;;;9.02;3.58;;;14.70;99.90;;;;;;5060539;28;20040;-68
2022/07/28 06:33:10;;;;;;;11.23;3.40;;;14.80;99.90;;;;;;5066515;28;20067;-68
2022/07/28 06:35:35;;;;;;;12.30;3.97;;;14.80;99.90;;;;;;5065298;28;20435;-67
2022/07/28 06:38:01;;;;;;;13.48;3.60;;;14.80;99.90;;;;;;5059912;28;20124;-67
2022/07/28 06:40:27;;;;;;;9.13;3.90;;;14.80;99.90;;;;;;5059991;28;20391;-68
2022/07/28 06:42:52;;;;;;;7.53;3.50;;;14.80;99.90;;;;;;5062108;28;20029;-67
2022/07/28 06:45:18;;;;;;;10.32;3.60;;;14.90;99.90;;;;;;5062160;28;20090;-68
2022/07/28 06:47:45;;;;;;;11.00;3.63;;;14.90;99.90;;;;;;5064488;28;20052;-68
2022/07/28 06:50:11;;;;;;;8.02;3.58;;;14.90;99.90;;;;;;5065359;28;20048;-67
2022/07/28 06:52:37;;;;;;;14.60;4.22;;;15.10;99.90;;;;;;5063798;28;20047;-68
2022/07/28 06:55:05;;;;;;;14.25;3.75;;;15.10;99.90;;;;;;5059524;28;20037;-68
2022/07/28 06:57:32;;;;;;;12.98;3.70;;;15.20;99.90;;;;;;5058379;28;20033;-67
2022/07/28 06:59:58;;;;;;;12.70;3.97;;;15.40;99.90;;;;;;5060848;28;20525;-68
2022/07/28 07:02:23;;;;;;;13.57;4.10;;;15.50;99.90;;;;;;5061710;28;20091;-67
2022/07/28 07:04:50;;;;;;;8.55;3.28;;;15.70;99.90;;;;;;5061547;28;20032;-67
2022/07/28 07:07:16;;;;;;;9.77;3.40;;;15.70;99.90;;;;;;5069305;28;20083;-68
2022/07/28 07:09:42;;;;;;;8.20;3.10;;;15.80;99.90;;;;;;5070333;28;20095;-67
2022/07/28 07:12:08;;;;;;;9.40;3.40;;;16.00;99.90;;;;;;5069204;28;20032;-67
2022/07/28 07:14:34;;;;;;;11.35;2.85;;;16.20;99.90;;;;;;5051621;28;20491;-67
2022/07/28 07:17:00;;;;;;;12.10;3.00;;;16.30;99.90;;;;;;5050052;28;20033;-67
2022/07/28 07:19:25;;;;;;;9.25;3.22;;;16.40;99.90;;;;;;5062712;28;20534;-67
2022/07/28 07:21:51;;;;;;;8.85;2.75;;;16.60;99.90;;;;;;5065217;28;20036;-67
2022/07/28 07:24:17;;;;;;;11.70;3.17;;;16.80;99.90;;;;;;5074478;28;20441;-67
2022/07/28 07:26:43;;;;;;;12.27;3.05;;;16.80;99.90;;;;;;5070462;28;20425;-67
2022/07/28 07:29:09;;;;;;;10.98;3.08;;;16.90;99.90;;;;;;5054078;28;20045;-67
2022/07/28 07:31:36;;;;;;;8.63;2.97;;;16.80;99.90;;;;;;5063855;28;20028;-67
2022/07/28 07:34:02;;;;;;;11.07;2.72;;;16.90;99.90;;;;;;5064054;28;20064;-67
2022/07/28 07:36:28;;;;;;;7.78;2.25;;;16.90;99.90;;;;;;5063404;28;20678;-66
2022/07/28 07:38:53;;;;;;;7.30;2.25;;;17.00;99.90;;;;;;5057936;28;20037;-67
2022/07/28 07:41:19;;;;;;;7.00;1.98;;;17.10;99.90;;;;;;5067492;28;20063;-67
2022/07/28 07:43:45;;;;;;;6.85;1.90;;;17.20;99.90;;;;;;5042714;28;20387;-66
2022/07/28 07:46:11;;;;;;;9.82;1.90;;;17.30;99.90;;;;;;5059763;28;20081;-67
2022/07/28 07:48:37;;;;;;;6.47;2.03;;;17.40;99.90;;;;;;5063092;28;20037;-67
2022/07/28 07:51:03;;;;;;;8.50;1.90;;;17.50;99.90;;;;;;5068665;28;20032;-68
2022/07/28 07:53:29;;;;;;;5.80;1.77;;;17.60;99.90;;;;;;5073294;28;20044;-67
2022/07/28 07:55:55;;;;;;;7.22;1.70;;;17.70;99.90;;;;;;5077602;28;20039;-66
2022/07/28 07:58:20;;;;;;;9.25;1.95;;;17.80;99.90;;;;;;5093727;28;20058;-67
2022/07/28 08:00:46;;;;;;;14.63;2.42;;;17.80;99.90;;;;;;5079045;28;20053;-67
2022/07/28 08:03:14;;;;;;;6.22;1.80;;;17.90;99.90;;;;;;5042676;28;20056;-68
2022/07/28 08:05:39;;;;;;;8.50;1.80;;;17.90;99.90;;;;;;5071276;28;20044;-68
2022/07/28 08:08:05;;;;;;;3.00;1.63;;;17.90;99.90;;;;;;5067313;28;20037;-66
2022/07/28 08:10:32;;;;;;;7.82;2.13;;;17.90;99.90;;;;;;5071640;28;20043;-67
2022/07/28 08:12:57;;;;;;;8.00;1.65;;;18.00;99.90;;;;;;5072075;28;20044;-68
2022/07/28 08:15:23;;;;;;;5.63;1.90;;;18.00;99.90;;;;;;5073236;28;20024;-68
2022/07/28 08:17:49;;;;;;;6.43;1.88;;;18.00;99.90;;;;;;5065608;28;20044;-67
2022/07/28 08:20:14;;;;;;;3.63;1.65;;;18.10;99.90;;;;;;5071376;28;20040;-68
2022/07/28 08:22:52;;;;;;;4.53;1.60;;;18.10;99.90;;;;;;5071733;28;20131;-67
2022/07/28 08:25:18;;;;;;;6.35;1.70;;;17.90;99.90;;;;;;5071350;28;20570;-70
2022/07/28 08:27:44;;;;;;;3.33;1.50;;;17.80;99.90;;;;;;5072328;28;20127;-67
2022/07/28 08:30:11;;;;;;;6.43;1.65;;;17.80;99.90;;;;;;5064043;28;20072;-67
2022/07/28 08:32:37;;;;;;;6.70;1.80;;;17.70;99.90;;;;;;5066918;28;20109;-68
2022/07/28 08:35:03;;;;;;;8.68;1.90;;;17.70;99.90;;;;;;5066767;28;20535;-69
2022/07/28 08:37:29;;;;;;;9.23;1.60;;;17.70;99.90;;;;;;5068552;28;20472;-67
2022/07/28 08:39:55;;;;;;;5.03;1.60;;;17.70;99.90;;;;;;5064334;28;20044;-68
2022/07/28 08:42:32;;;;;;;5.60;1.85;;;17.70;99.90;;;;;;5058829;28;20427;-68
2022/07/28 08:45:02;;;;;;;6.07;1.75;;;17.90;99.90;;;;;;5061264;28;20032;-67
2022/07/28 08:47:31;;;;;;;5.43;1.52;;;18.10;99.90;;;;;;5049968;28;20052;-67
2022/07/28 08:50:00;;;;;;;6.13;2.35;;;18.20;99.90;;;;;;5068184;28;20048;-68
2022/07/28 08:52:30;;;;;;;6.38;1.63;;;18.30;99.90;;;;;;5071245;28;20039;-67
2022/07/28 08:54:57;;;;;;;4.70;1.65;;;18.40;99.90;;;;;;5069505;28;20475;-68
2022/07/28 08:57:29;;;;;;;7.03;1.80;;;18.40;99.90;;;;;;5057205;28;20076;-68
2022/07/28 08:59:55;;;;;;;4.38;1.42;;;18.40;99.90;;;;;;5068519;28;20041;-68
2022/07/28 09:02:22;;;;;;;5.15;1.75;;;18.30;99.90;;;;;;5054945;28;20036;-67
2022/07/28 09:04:49;;;;;;;7.60;2.00;;;18.20;99.90;;;;;;5067066;28;20476;-68
2022/07/28 09:07:16;;;;;;;3.22;1.90;;;18.10;99.90;;;;;;5070771;28;20052;-67
2022/07/28 09:09:42;;;;;;;4.93;1.80;;;18.00;99.90;;;;;;5071013;28;20047;-67
2022/07/28 09:12:08;;;;;;;6.55;1.80;;;18.10;99.90;;;;;;5072261;28;20067;-69
2022/07/28 09:14:34;;;;;;;5.18;1.77;;;18.10;99.90;;;;;;5070776;28;20033;-69
2022/07/28 09:17:00;;;;;;;5.93;1.95;;;18.30;99.90;;;;;;5070540;28;20617;-66
2022/07/28 09:19:27;;;;;;;4.05;1.70;;;18.30;99.90;;;;;;5065445;28;20032;-68
2022/07/28 09:21:54;;;;;;;5.20;1.92;;;18.50;99.90;;;;;;5063780;28;20387;-67
2022/07/28 09:24:38;;;;;;;5.82;1.90;;;18.60;99.90;;;;;;5072512;28;20486;-68
2022/07/28 09:27:06;;;;;;;7.85;2.03;;;18.70;99.90;;;;;;5070572;28;20043;-69
2022/07/28 09:29:33;;;;;;;6.47;1.88;;;18.60;99.90;;;;;;5070018;28;20045;-68
2022/07/28 09:31:59;;;;;;;6.47;1.88;;;18.60;99.90;;;;;;5071746;28;20041;-67
2022/07/28 09:34:24;;;;;;;2.70;1.30;;;18.70;99.90;;;;;;5067931;28;20536;-68
2022/07/28 09:36:51;;;;;;;5.95;1.50;;;18.90;99.90;;;;;;5080215;28;20482;-67
2022/07/28 09:39:33;;;;;;;2.75;1.30;;;18.90;99.90;;;;;;5064040;28;20372;-67
2022/07/28 09:41:59;;;;;;;6.20;1.70;;;18.80;99.90;;;;;;5056348;28;20041;-67
2022/07/28 09:44:26;;;;;;;4.82;1.65;;;18.70;99.90;;;;;;5050959;28;20043;-67
2022/07/28 09:46:52;;;;;;;2.90;1.55;;;18.70;99.90;;;;;;5071987;28;20041;-67
2022/07/28 09:49:18;;;;;;;5.40;1.45;;;18.70;99.90;;;;;;5068988;28;20044;-66
2022/07/28 09:52:06;;;;;;;4.97;1.75;;;18.60;99.90;;;;;;5062351;28;20044;-66
2022/07/28 09:54:32;;;;;;;3.90;1.50;;;18.70;99.90;;;;;;5067261;28;20128;-66
2022/07/28 09:56:57;;;;;;;5.85;1.60;;;18.70;99.90;;;;;;5077463;28;20567;-68
2022/07/28 09:59:23;;;;;;;2.63;1.48;;;19.00;99.90;;;;;;5057128;28;20041;-68
2022/07/28 10:02:01;;;;;;;2.50;1.33;;;19.20;99.90;;;;;;5059173;28;20127;-67
2022/07/28 10:04:40;;;;;;;3.72;1.25;;;19.30;99.90;;;;;;5050944;28;20073;-67
2022/07/28 10:07:10;;;;;;;3.58;1.50;;;19.30;99.90;;;;;;5060768;28;20032;-67
2022/07/28 10:09:37;;;;;;;5.05;1.42;;;19.30;99.90;;;;;;5061676;28;20029;-67
2022/07/28 10:12:16;;;;;;;5.50;1.52;;;19.30;99.90;;;;;;5049066;28;20125;-66
2022/07/28 10:14:41;;;;;;;4.55;1.50;;;19.30;99.90;;;;;;5060990;28;20044;-67
2022/07/28 10:17:08;;;;;;;4.43;1.55;;;19.20;99.90;;;;;;5068947;28;20075;-67
2022/07/28 10:19:36;;;;;;;5.57;1.60;;;19.20;99.90;;;;;;5069874;28;20055;-67
2022/07/28 10:22:02;;;;;;;6.00;1.75;;;19.10;99.90;;;;;;5070678;28;20044;-68
2022/07/28 10:24:30;;;;;;;7.63;1.67;;;19.30;99.90;;;;;;5067417;28;20091;-65
2022/07/28 10:26:57;;;;;;;3.92;1.48;;;19.40;99.90;;;;;;5070684;28;20099;-67
2022/07/28 10:29:23;;;;;;;3.70;1.77;;;19.30;99.90;;;;;;5075458;28;20437;-67
2022/07/28 10:31:56;;;;;;;6.03;1.60;;;19.30;99.90;;;;;;5051118;28;20093;-67
2022/07/28 10:34:39;;;;;;;3.92;1.63;;;19.30;99.90;;;;;;5067490;28;20048;-67
2022/07/28 10:37:09;;;;;;;7.35;1.85;;;19.40;99.90;;;;;;5071354;28;20041;-66
2022/07/28 10:39:43;;;;;;;7.32;1.77;;;19.60;99.90;;;;;;5067708;28;20041;-67
2022/07/28 10:42:10;;;;;;;4.47;1.58;;;19.70;99.90;;;;;;5075994;28;20040;-67
2022/07/28 10:44:37;;;;;;;3.45;1.50;;;19.80;99.90;;;;;;5070031;28;20044;-67
2022/07/28 10:47:13;;;;;;;3.47;1.60;;;19.90;99.90;;;;;;5065718;28;20040;-69
2022/07/28 10:49:41;;;;;;;3.58;1.63;;;19.80;99.90;;;;;;5051019;28;20488;-67
2022/07/28 10:52:07;;;;;;;4.40;1.60;;;20.00;99.90;;;;;;5066348;28;20032;-70
2022/07/28 10:54:50;;;;;;;6.40;1.80;;;20.10;99.90;;;;;;5072146;28;20403;-67
2022/07/28 10:57:17;;;;;;;5.47;1.70;;;20.20;99.90;;;;;;5062021;28;20091;-67
2022/07/28 11:00:04;;;;;;;7.38;1.85;;;20.40;99.90;;;;;;5068607;28;20514;-67
2022/07/28 11:02:57;;;;;;;4.43;1.50;;;20.50;99.90;;;;;;5077512;28;20048;-69
2022/07/28 11:05:39;;;;;;;6.15;1.50;;;20.60;99.90;;;;;;5068554;28;20395;-67
2022/07/28 11:08:07;;;;;;;3.40;1.70;;;20.60;99.90;;;;;;5063978;28;20044;-67
2022/07/28 11:10:47;;;;;;;3.22;1.50;;;20.60;99.90;;;;;;5069463;28;20028;-66
2022/07/28 11:13:29;;;;;;;5.70;1.63;;;20.60;99.90;;;;;;5064962;28;20048;-67
2022/07/28 11:15:55;;;;;;;4.45;1.65;;;20.60;99.90;;;;;;5069016;28;20041;-66
2022/07/28 11:18:21;;;;;;;5.07;2.10;;;20.60;99.90;;;;;;5053810;28;20476;-66
2022/07/28 11:20:51;;;;;;;5.28;1.65;;;20.70;99.90;;;;;;5047475;28;20044;-68
2022/07/28 11:23:46;;;;;;;2.83;1.70;;;20.80;99.90;;;;;;5048580;28;20107;-67
2022/07/28 11:26:23;;;;;;;4.93;1.60;;;20.80;99.90;;;;;;5048659;28;20443;-68
2022/07/28 11:29:07;;;;;;;3.60;1.35;;;21.00;99.90;;;;;;5049163;28;20478;-66
2022/07/28 11:31:45;;;;;;;4.53;1.63;;;21.20;99.90;;;;;;5054592;28;20051;-67
2022/07/28 11:34:21;;;;;;;4.43;1.80;;;21.20;99.90;;;;;;5063313;28;20095;-66
2022/07/28 11:37:01;;;;;;;7.72;1.70;;;21.20;99.90;;;;;;5058399;28;20044;-67
2022/07/28 11:39:39;;;;;;;3.47;1.45;;;21.00;99.90;;;;;;5062514;28;20059;-68
2022/07/28 11:42:23;;;;;;;7.03;1.52;;;21.00;99.70;;;;;;5068057;28;20097;-69
2022/07/28 11:44:49;;;;;;;6.32;1.30;;;21.00;99.90;;;;;;5068345;28;20032;-67
2022/07/28 11:47:16;;;;;;;4.75;1.60;;;21.00;99.90;;;;;;5067666;28;20379;-69
2022/07/28 11:49:43;;;;;;;10.27;1.67;;;20.90;99.90;;;;;;5066698;28;20090;-69
2022/07/28 11:52:18;;;;;;;28.15;2.75;;;20.80;99.90;;;;;;5067447;28;20037;-68
2022/07/28 11:54:48;;;;;;;24.25;2.63;;;20.60;99.90;;;;;;5052486;28;20391;-68
2022/07/28 11:57:15;;;;;;;24.40;2.22;;;20.50;99.90;;;;;;5068475;28;20097;-68
2022/07/28 11:59:47;;;;;;;44.75;3.63;;;20.50;99.90;;;;;;5069854;28;20055;-68
2022/07/28 12:02:17;;;;;;;5.40;1.80;;;20.50;99.90;;;;;;5066194;28;20256;-70
2022/07/28 12:04:44;;;;;;;3.97;1.38;;;20.50;99.90;;;;;;5068205;28;20143;-70
2022/07/28 12:07:10;;;;;;;14.63;1.88;;;20.50;99.90;;;;;;5068505;28;20127;-68
2022/07/28 12:09:37;;;;;;;3.33;1.55;;;20.70;99.90;;;;;;5070041;28;20048;-69
2022/07/28 12:12:06;;;;;;;6.45;1.60;;;20.80;99.90;;;;;;5068583;28;20050;-70
2022/07/28 12:14:37;;;;;;;9.63;1.75;;;20.90;99.90;;;;;;5069016;28;20036;-68
2022/07/28 12:17:04;;;;;;;3.70;1.40;;;20.90;99.90;;;;;;5052303;28;20050;-66
2022/07/28 12:19:30;;;;;;;2.55;1.40;;;20.90;99.90;;;;;;5063849;28;20037;-67
2022/07/28 12:21:56;;;;;;;2.53;1.50;;;21.10;99.90;;;;;;5073029;28;20032;-67
2022/07/28 12:24:29;;;;;;;4.45;1.50;;;21.30;99.90;;;;;;5069629;28;20126;-66
2022/07/28 12:26:59;;;;;;;3.47;1.30;;;21.40;99.30;;;;;;5061362;28;20136;-67
2022/07/28 12:29:30;;;;;;;4.53;1.77;;;21.40;99.40;;;;;;5072423;28;20059;-68
2022/07/28 12:32:08;;;;;;;5.57;1.30;;;21.50;99.60;;;;;;5068641;28;20106;-67
2022/07/28 12:34:34;;;;;;;4.70;1.33;;;21.50;99.90;;;;;;5069373;28;20037;-67
2022/07/28 12:37:03;;;;;;;4.53;1.50;;;21.60;99.40;;;;;;5068818;28;20387;-66
2022/07/28 12:39:32;;;;;;;5.78;1.55;;;21.70;98.60;;;;;;5071197;28;20049;-67
2022/07/28 12:42:02;;;;;;;4.53;1.52;;;21.80;98.70;;;;;;5070837;28;20044;-65
2022/07/28 12:44:38;;;;;;;4.03;1.40;;;21.90;99.10;;;;;;5072188;28;20399;-65
2022/07/28 12:47:06;;;;;;;5.88;1.45;;;22.00;98.50;;;;;;5059843;28;20036;-67
2022/07/28 12:49:34;;;;;;;7.47;1.70;;;22.00;98.90;;;;;;5052720;28;20392;-65
2022/07/28 12:52:23;;;;;;;2.67;1.23;;;21.90;98.60;;;;;;5062236;28;20040;-66
2022/07/28 12:54:51;;;;;;;1.90;1.27;;;21.70;95.30;;;;;;5063048;28;20051;-67
2022/07/28 12:57:37;;;;;;;2.17;1.27;;;21.60;96.60;;;;;;5066367;28;20040;-68